地図

経路データ

SID SEASON NUMBER BASIN SUBBASIN NAME ISO_TIME NATURE LAT LON WMO_WIND WMO_PRES WMO_AGENCY TRACK_TYPE DIST2LAND LANDFALL IFLAG USA_AGENCY USA_ATCF_ID USA_LAT USA_LON USA_RECORD USA_STATUS USA_WIND USA_PRES USA_SSHS USA_R34_NE USA_R34_SE USA_R34_SW USA_R34_NW USA_R50_NE USA_R50_SE USA_R50_SW USA_R50_NW USA_R64_NE USA_R64_SE USA_R64_SW USA_R64_NW USA_POCI USA_ROCI USA_RMW USA_EYE TOKYO_LAT TOKYO_LON TOKYO_GRADE TOKYO_WIND TOKYO_PRES TOKYO_R50_DIR TOKYO_R50_LONG TOKYO_R50_SHORT TOKYO_R30_DIR TOKYO_R30_LONG TOKYO_R30_SHORT TOKYO_LAND CMA_LAT CMA_LON CMA_CAT CMA_WIND CMA_PRES HKO_LAT HKO_LON HKO_CAT HKO_WIND HKO_PRES NEWDELHI_LAT NEWDELHI_LON NEWDELHI_GRADE NEWDELHI_WIND NEWDELHI_PRES NEWDELHI_CI NEWDELHI_DP NEWDELHI_POCI REUNION_LAT REUNION_LON REUNION_TYPE REUNION_WIND REUNION_PRES REUNION_TNUM REUNION_CI REUNION_RMW REUNION_R34_NE REUNION_R34_SE REUNION_R34_SW REUNION_R34_NW REUNION_R50_NE REUNION_R50_SE REUNION_R50_SW REUNION_R50_NW REUNION_R64_NE REUNION_R64_SE REUNION_R64_SW REUNION_R64_NW BOM_LAT BOM_LON BOM_TYPE BOM_WIND BOM_PRES BOM_TNUM BOM_CI BOM_RMW BOM_R34_NE BOM_R34_SE BOM_R34_SW BOM_R34_NW BOM_R50_NE BOM_R50_SE BOM_R50_SW BOM_R50_NW BOM_R64_NE BOM_R64_SE BOM_R64_SW BOM_R64_NW BOM_ROCI BOM_POCI BOM_EYE BOM_POS_METHOD BOM_PRES_METHOD NADI_LAT NADI_LON NADI_CAT NADI_WIND NADI_PRES WELLINGTON_LAT WELLINGTON_LON WELLINGTON_WIND WELLINGTON_PRES DS824_LAT DS824_LON DS824_STAGE DS824_WIND DS824_PRES TD9636_LAT TD9636_LON TD9636_STAGE TD9636_WIND TD9636_PRES TD9635_LAT TD9635_LON TD9635_WIND TD9635_PRES TD9635_ROCI NEUMANN_LAT NEUMANN_LON NEUMANN_CLASS NEUMANN_WIND NEUMANN_PRES MLC_LAT MLC_LON MLC_CLASS MLC_WIND MLC_PRES USA_GUST BOM_GUST BOM_GUST_PER REUNION_GUST REUNION_GUST_PER USA_SEAHGT USA_SEARAD_NE USA_SEARAD_SE USA_SEARAD_SW USA_SEARAD_NW STORM_SPEED STORM_DIR
2003088S07131 2003 22 SI WA INIGO 2003-03-29 06:00:00 TS -7.00000 130.600 main 86 86 O___________O_ jtwc_sh SH262003 -7.00000 130.600 TD 15 1006 -1 -7.00000 130.600 TC 15 7 263
2003088S07131 2003 22 SI WA INIGO 2003-03-29 09:00:00 TS -7.04255 130.250 main 114 114 P___________P_ SH262003 -7.04255 130.250 TD 15 1006 -1 -7.04255 130.250 TC 15 7 262
2003088S07131 2003 22 SI WA INIGO 2003-03-29 12:00:00 TS -7.10000 129.900 main 150 150 O___________O_ jtwc_sh SH262003 -7.10000 129.900 TD 15 1006 -1 -7.10000 129.900 TC 15 7 258
2003088S07131 2003 22 SI WA INIGO 2003-03-29 15:00:00 TS -7.18497 129.550 main 178 188 P___________P_ SH262003 -7.18497 129.550 TD 15 1006 -1 -7.18497 129.550 TC 15 7 254
2003088S07131 2003 22 SI WA INIGO 2003-03-29 18:00:00 TS -7.30000 129.200 main 216 208 O___________O_ jtwc_sh SH262003 -7.30000 129.200 TD 15 1006 -1 -7.30000 129.200 TC 15 7 250
2003088S07131 2003 22 SI WA INIGO 2003-03-29 21:00:00 TS -7.44247 128.850 main 199 159 P___________P_ SH262003 -7.44247 128.850 TD 17 1005 -1 -7.44247 128.850 TC 17 8 247
2003088S07131 2003 22 SI WA INIGO 2003-03-30 00:00:00 TS -7.60000 128.500 main 159 126 O___________O_ jtwc_sh SH262003 -7.60000 128.500 TD 20 1004 -1 -7.60000 128.500 TC 20 7 246
2003088S07131 2003 22 SI WA INIGO 2003-03-30 03:00:00 TS -7.74993 128.165 main 126 78 P___________P_ SH262003 -7.74993 128.165 TD 22 1003 -1 -7.74993 128.165 TC 22 8 247
2003088S07131 2003 22 SI WA INIGO 2003-03-30 06:00:00 TS -7.90000 127.800 main 78 46 O___________O_ jtwc_sh SH262003 -7.90000 127.800 TD 25 1002 -1 -7.90000 127.800 TC 25 8 249
2003088S07131 2003 22 SI WA INIGO 2003-03-30 09:00:00 TS -8.05000 127.365 main 46 22 P___________P_ SH262003 -8.05000 127.365 TD 25 1002 -1 -8.05000 127.365 TC 25 9 251
2003088S07131 2003 22 SI WA INIGO 2003-03-30 12:00:00 TS -8.20000 126.900 main 22 15 O___________O_ jtwc_sh SH262003 -8.20000 126.900 TD 25 1002 -1 -8.20000 126.900 TC 25 9 251
2003088S07131 2003 22 SI WA INIGO 2003-03-30 15:00:00 TS -8.34989 126.465 main 22 11 P___________P_ SH262003 -8.34989 126.465 TD 25 1002 -1 -8.34989 126.465 TC 25 9 251
2003088S07131 2003 22 SI WA INIGO 2003-03-30 18:00:00 TS -8.50000 126.000 main 11 0 O___________O_ jtwc_sh SH262003 -8.50000 126.000 TD 25 1002 -1 -8.50000 126.000 TC 25 10 253
2003088S07131 2003 22 SI WA INIGO 2003-03-30 21:00:00 TS -8.65748 125.465 main 0 0 P___________P_ SH262003 -8.65748 125.465 TD 25 1002 -1 -8.65748 125.465 TC 25 12 261
2003088S07131 2003 22 SI WA INIGO 2003-03-31 00:00:00 TS -8.67778 124.800 20 1006 bom main 33 22 O_____O_____O_ jtwc_sh SH262003 -8.80000 124.900 TD 25 1002 -1 -7.70000 124.000 20 20 1006 1.50000 1.50000 103 3 5 -8.80000 124.900 TC 25 29 29 13 267
2003088S07131 2003 22 SI WA INIGO 2003-03-31 03:00:00 TS -8.71947 124.175 main 31 31 P_____P_____P_ SH262003 -8.89242 124.350 TD 27 1003 -1 -8.02766 123.478 20 20 1005 103 -8.89242 124.350 TC 27 12 264
2003088S07131 2003 22 SI WA INIGO 2003-03-31 06:00:00 TS -8.80909 123.582 20 1004 bom main 71 47 O_____O_____O_ jtwc_sh SH262003 -9.00000 123.800 TD 30 1005 -1 1008 130 45 -8.30000 123.000 20 20 1004 1.50000 1.50000 103 3 5 -9.00000 123.800 TC 30 29 29 12 258
2003088S07131 2003 22 SI WA INIGO 2003-03-31 09:00:00 TS -8.96499 123.020 main 49 44 P_____P_____P_ SH262003 -9.20751 123.228 TD 30 1002 -1 1008 130 45 -8.47995 122.605 20 20 1004 103 -9.20751 123.228 TC 30 11 252
2003088S07131 2003 22 SI WA INIGO 2003-03-31 12:00:00 TS -9.13333 122.567 20 1004 bom main 49 46 O_____O_____O_ jtwc_sh SH262003 -9.40000 122.700 TD 30 1000 -1 1008 130 45 -8.60000 122.300 20 20 1004 2.00000 2.00000 103 3 5 -9.40000 122.700 TC 30 29 29 8 252
2003088S07131 2003 22 SI WA INIGO 2003-03-31 15:00:00 TS -9.22491 122.206 main 55 46 P_____P_____P_ SH262003 -9.48739 122.270 TD 30 1000 -1 1008 130 45 -8.69995 122.077 20 20 1003 103 -9.48739 122.270 TC 30 7 259
2003088S07131 2003 22 SI WA INIGO 2003-03-31 18:00:00 TS -9.26667 121.900 20 1002 bom main 46 44 O_____O_____O_ jtwc_sh SH262003 -9.50000 121.900 TD 30 1000 -1 1008 130 45 -8.80000 121.900 20 20 1002 2.50000 2.50000 103 3 5 -9.50000 121.900 TC 30 34 34 6 266
2003088S07131 2003 22 SI WA INIGO 2003-03-31 21:00:00 TS -9.26581 121.587 main 46 44 P_____P_____P_ SH262003 -9.43498 121.527 TD 30 1000 -1 1008 130 62 -8.92748 121.707 20 22 1001 103 -9.43498 121.527 TC 30 6 267
2003088S07131 2003 22 SI WA INIGO 2003-04-01 00:00:00 TS -9.30000 121.300 25 1000 bom main 44 40 O_____O_____O_ jtwc_sh SH262003 -9.40000 121.200 TD 30 1000 -1 1008 130 80 -9.10000 121.500 20 25 1000 2.50000 2.50000 30 103 1009 3 5 -9.40000 121.200 TC 30 40 40 6 251
2003088S07131 2003 22 SI WA INIGO 2003-04-01 03:00:00 TS -9.45579 121.043 main 55 24 P_____P_____P_ SH262003 -9.51246 120.928 TD 30 1000 -1 1008 130 80 -9.34246 121.272 20 30 997 30 110 1008 -9.51246 120.928 TC 30 6 233
2003088S07131 2003 22 SI WA INIGO 2003-04-01 06:00:00 TS -9.66667 120.800 35 994 bom main 24 0 O_____O_____O_ jtwc_sh SH262003 -9.70000 120.700 TD 30 1000 -1 1008 130 80 -9.60000 121.000 30 35 994 3.00000 3.00000 30 30 30 30 30 118 1007 3 5 -9.70000 120.700 TC 30 49 49 6 229
2003088S07131 2003 22 SI WA INIGO 2003-04-01 09:00:00 TS -9.87664 120.555 main 0 0 P_____P_____P_ SH262003 -9.90744 120.507 TD 32 998 -1 1007 130 80 -9.81505 120.650 30 35 994 30 35 50 60 40 118 1007 -9.90744 120.507 TC 32 6 231
2003088S07131 2003 22 SI WA INIGO 2003-04-01 12:00:00 TS -10.0667 120.300 35 995 bom main 0 0 O_____V_____O_ jtwc_sh SH262003 -10.1000 120.300 TS 35 997 0 1007 130 80 -10.0000 120.300 21 35 995 2.50000 3.00000 30 40 70 90 50 118 1008 3 5 -10.1000 120.300 TC 35 49 49 6 241
2003088S07131 2003 22 SI WA INIGO 2003-04-01 15:00:00 TS -10.1784 120.007 main 15 15 P_____P_____P_ SH262003 -10.1925 120.000 TS 35 997 0 1007 130 77 -10.1500 120.020 21 37 993 30 45 74 94 60 118 1008 -10.1925 120.000 TC 35 6 247
2003088S07131 2003 22 SI WA INIGO 2003-04-01 18:00:00 TS -10.3000 119.733 40 992 bom main 47 47 O_____O_____O_ jtwc_sh SH262003 -10.3000 119.700 TS 35 997 0 1007 130 75 -10.3000 119.800 30 40 992 3.00000 3.00000 30 50 79 99 70 118 1008 3 5 -10.3000 119.700 TC 35 55 55 6 233
2003088S07131 2003 22 SI WA INIGO 2003-04-01 21:00:00 TS -10.5208 119.540 main 78 78 P_____P_____P_ SH262003 -10.5350 119.485 TS 40 994 0 1007 140 65 -10.4924 119.650 30 42 991 27 64 89 99 74 134 1008 -10.5350 119.485 TC 40 6 218
2003088S07131 2003 22 SI WA INIGO 2003-04-02 00:00:00 TS -10.7667 119.367 45 990 bom main 109 109 O_____O_____O_ jtwc_sh SH262003 -10.8000 119.300 TS 45 991 0 75 100 100 75 1007 150 55 -10.7000 119.500 30 45 990 3.00000 3.00000 24 79 99 99 79 151 1009 3 5 -10.8000 119.300 TC 45 64 64 6 219
2003088S07131 2003 22 SI WA INIGO 2003-04-02 03:00:00 TS -10.9867 119.153 main 136 136 P_____P_____P_ SH262003 -11.0225 119.100 TS 45 991 0 72 100 100 72 1007 140 55 -10.9150 119.258 30 50 987 21 79 99 99 79 164 1008 -11.0225 119.100 TC 45 6 227
2003088S07131 2003 22 SI WA INIGO 2003-04-02 06:00:00 TS -11.1667 118.933 55 985 bom main 166 166 O_____O_____O_ jtwc_sh SH262003 -11.2000 118.900 TS 45 991 0 70 100 100 70 1007 130 55 -11.1000 119.000 30 55 985 3.50000 3.50000 19 79 99 99 79 178 1007 3 5 -11.2000 118.900 TC 45 80 80 5 235
2003088S07131 2003 22 SI WA INIGO 2003-04-02 09:00:00 TS -11.2842 118.721 main 184 184 P_____P_____P_ SH262003 -11.3150 118.692 TS 50 987 0 70 100 100 70 1006 130 42 -11.2225 118.777 30 57 980 19 79 99 99 79 188 1007 -11.3150 118.692 TC 50 4 243
2003088S07131 2003 22 SI WA INIGO 2003-04-02 12:00:00 TS -11.3667 118.533 60 975 bom main 201 201 O_____O_____O_ jtwc_sh SH262003 -11.4000 118.500 TS 55 984 0 70 100 100 70 1006 130 30 -11.3000 118.600 30 60 975 4.00000 4.00000 19 79 99 99 79 199 1008 3 5 -11.4000 118.500 TC 55 84 84 4 243
2003088S07131 2003 22 SI WA INIGO 2003-04-02 15:00:00 TS -11.4500 118.395 main 205 205 P_____P_____P_ SH262003 -11.5075 118.342 TS 60 980 0 70 100 100 70 1005 130 25 -11.3350 118.500 30 62 970 19 79 99 99 79 199 1008 -11.5075 118.342 TC 60 3 238
2003088S07131 2003 22 SI WA INIGO 2003-04-02 18:00:00 TS -11.5333 118.267 65 965 bom main 219 219 O_____O_____O_ jtwc_sh SH262003 -11.6000 118.200 TY 65 976 1 70 100 100 70 1005 130 20 -11.4000 118.400 40 65 965 4.50000 4.50000 19 79 99 99 79 199 1008 3 5 -11.6000 118.200 TC 65 89 89 3 236
2003088S07131 2003 22 SI WA INIGO 2003-04-02 21:00:00 TS -11.6333 118.118 main 239 239 P_____P_____P_ SH262003 -11.6500 118.065 TY 70 971 1 70 100 100 70 1004 130 17 -11.6000 118.223 40 70 962 19 89 99 104 94 207 1008 -11.6500 118.065 TC 70 4 239
2003088S07131 2003 22 SI WA INIGO 2003-04-03 00:00:00 TS -11.7333 117.933 75 960 bom main 259 259 O_____O_____O_ jtwc_sh SH262003 -11.7000 117.900 TY 75 967 1 70 100 100 70 1004 130 15 -11.8000 118.000 40 75 960 4.50000 4.50000 19 99 99 110 110 215 1009 8 4 5 -11.7000 117.900 TC 75 104 104 5 246
2003088S07131 2003 22 SI WA INIGO 2003-04-03 03:00:00 TS -11.8167 117.696 main 280 280 P_____P_____P_ SH262003 -11.7925 117.665 TY 87 955 2 77 107 92 77 1004 127 20 -11.8650 117.757 40 80 955 19 99 99 110 110 215 1008 -11.7925 117.665 TC 87 5 251
2003088S07131 2003 22 SI WA INIGO 2003-04-03 06:00:00 TS -11.9000 117.433 85 950 bom main 308 308 O_____O_____O_ jtwc_sh SH262003 -11.9000 117.400 TY 100 944 3 85 115 85 85 1004 125 25 -11.9000 117.500 40 85 950 5.00000 5.00000 19 99 99 110 110 215 1007 8 4 5 -11.9000 117.400 TC 100 119 119 5 250
2003088S07131 2003 22 SI WA INIGO 2003-04-03 09:00:00 TS -11.9950 117.186 main 325 324 P_____P_____P_ SH262003 -12.0000 117.150 TY 105 938 3 85 115 85 85 1004 125 25 -11.9850 117.257 40 92 942 19 109 109 124 124 215 1007 -12.0000 117.150 TC 105 5 248
2003088S07131 2003 22 SI WA INIGO 2003-04-03 12:00:00 TS -12.1000 116.933 100 935 bom main 336 336 O_____O_____O_ jtwc_sh SH262003 -12.1000 116.900 TY 110 933 3 85 115 85 85 1004 125 25 -12.1000 117.000 40 100 935 6.00000 6.00000 19 119 119 139 139 215 1008 8 4 5 -12.1000 116.900 TC 110 139 139 5 247
2003088S07131 2003 22 SI WA INIGO 2003-04-03 15:00:00 TS -12.2116 116.674 main 348 348 P_____P_____P_ SH262003 -12.1925 116.657 TY 117 924 4 87 102 87 87 1003 122 20 -12.2500 116.708 40 105 927 19 129 134 139 139 215 1008 -12.1925 116.657 TC 117 6 246
2003088S07131 2003 22 SI WA INIGO 2003-04-03 18:00:00 TS -12.3333 116.400 110 920 bom main 364 364 O_____O_____O_ jtwc_sh SH262003 -12.3000 116.400 TY 125 916 4 90 90 90 90 1002 120 15 -12.4000 116.400 40 110 920 6.50000 6.50000 19 139 150 139 139 215 1008 8 4 5 -12.3000 116.400 TC 125 154 154 6 247
2003088S07131 2003 22 SI WA INIGO 2003-04-03 21:00:00 TS -12.4467 116.105 main 382 382 P_____P_____P_ SH262003 -12.4275 116.107 TY 132 907 4 90 90 90 90 1000 120 15 -12.4850 116.100 40 115 915 19 144 170 159 139 231 1008 -12.4275 116.107 TC 132 6 245
2003088S07131 2003 22 SI WA INIGO 2003-04-04 00:00:00 TS -12.6000 115.800 120 910 bom main 408 408 O_____O_____O_ jtwc_sh SH262003 -12.6000 115.800 ST 140 898 5 90 90 90 90 999 120 15 -12.6000 115.800 40 120 910 7.00000 7.00000 19 150 190 179 139 247 1009 8 4 5 -12.6000 115.800 TC 140 170 170 7 236
2003088S07131 2003 22 SI WA INIGO 2003-04-04 03:00:00 TS -12.8375 115.503 main 436 436 P_____P_____P_ SH262003 -12.8425 115.500 ST 140 898 5 110 110 110 110 999 127 22 -12.8274 115.507 40 122 905 19 160 190 179 144 247 1008 -12.8425 115.500 TC 140 8 230
2003088S07131 2003 22 SI WA INIGO 2003-04-04 06:00:00 TS -13.1000 115.200 125 900 bom main 477 477 O_____O_____O_ jtwc_sh SH262003 -13.1000 115.200 ST 140 898 5 130 130 130 130 1000 135 30 -13.1000 115.200 40 125 900 7.00000 7.00000 19 170 190 179 150 247 1008 7 4 5 -13.1000 115.200 TC 140 174 174 8 231
2003088S07131 2003 22 SI WA INIGO 2003-04-04 09:00:00 TS -13.3242 114.876 main 504 504 P_____P_____P_ SH262003 -13.3075 114.892 ST 140 898 5 130 130 130 130 1000 135 30 -13.3575 114.843 40 125 900 19 160 184 179 150 247 1008 -13.3075 114.892 TC 140 8 235
2003088S07131 2003 22 SI WA INIGO 2003-04-04 12:00:00 TS -13.5333 114.567 125 900 bom main 526 526 O_____O_____O_ jtwc_sh SH262003 -13.5000 114.600 ST 140 898 5 130 130 130 130 1000 135 30 -13.6000 114.500 40 125 900 7.00000 7.00000 19 150 179 179 150 247 1009 7 4 5 -13.5000 114.600 TC 140 174 174 7 233
2003088S07131 2003 22 SI WA INIGO 2003-04-04 15:00:00 TS -13.7383 114.304 main 549 549 P_____P_____P_ SH262003 -13.6999 114.342 ST 140 898 5 115 130 120 115 1000 135 30 -13.8149 114.227 40 125 902 19 150 179 179 150 247 1009 -13.6999 114.342 TC 140 6 231
2003088S07131 2003 22 SI WA INIGO 2003-04-04 18:00:00 TS -13.9333 114.067 125 905 bom main 573 573 O_____O_____O_ jtwc_sh SH262003 -13.9000 114.100 ST 140 898 5 100 130 110 100 1000 135 30 -14.0000 114.000 40 125 905 6.50000 7.00000 19 150 179 179 150 247 1010 8 4 5 -13.9000 114.100 TC 140 174 174 6 230
2003088S07131 2003 22 SI WA INIGO 2003-04-04 21:00:00 TS -14.1342 113.826 main 599 599 P_____P_____P_ SH262003 -14.1150 113.843 ST 135 904 4 100 130 110 100 1000 135 27 -14.1725 113.792 40 122 907 19 144 189 189 144 247 1010 -14.1150 113.843 TC 135 6 231
2003088S07131 2003 22 SI WA INIGO 2003-04-05 00:00:00 TS -14.3000 113.600 120 910 bom main 625 625 O_____O_____O_ jtwc_sh SH262003 -14.3000 113.600 ST 130 910 4 100 130 110 100 1000 135 25 -14.3000 113.600 40 120 910 6.00000 7.00000 19 139 199 199 139 247 1011 8 4 5 -14.3000 113.600 TC 130 170 170 5 239
2003088S07131 2003 22 SI WA INIGO 2003-04-05 03:00:00 TS -14.3958 113.380 main 640 640 P_____P_____P_ SH262003 -14.4150 113.377 ST 127 913 4 95 130 115 95 1000 165 17 -14.3575 113.385 40 117 912 19 139 189 179 129 247 1010 -14.4150 113.377 TC 127 4 247
2003088S07131 2003 22 SI WA INIGO 2003-04-05 06:00:00 TS -14.4667 113.200 115 915 bom main 656 656 O_____O_____O_ jtwc_sh SH262003 -14.5000 113.200 TY 125 916 4 90 130 120 90 1001 195 10 -14.4000 113.200 40 115 915 6.00000 6.50000 19 139 179 159 119 247 1009 8 4 5 -14.5000 113.200 TC 125 159 159 3 240
2003088S07131 2003 22 SI WA INIGO 2003-04-05 09:00:00 TS -14.5641 113.082 main 669 669 P_____P_____P_ SH262003 -14.6000 113.085 TY 125 916 4 100 130 120 100 1001 165 10 -14.4925 113.077 40 110 920 19 129 159 149 119 247 1009 -14.6000 113.085 TC 125 3 224
2003088S07131 2003 22 SI WA INIGO 2003-04-05 12:00:00 TS -14.6667 113.000 105 925 bom main 683 683 O_____O_____O_ jtwc_sh SH262003 -14.7000 113.000 TY 125 916 4 110 130 120 110 1001 135 10 -14.6000 113.000 40 105 925 5.50000 6.00000 19 119 139 139 119 247 1010 8 4 5 -14.7000 113.000 TC 125 150 150 3 219
2003088S07131 2003 22 SI WA INIGO 2003-04-05 15:00:00 TS -14.7667 112.909 main 696 696 P_____P_____P_ SH262003 -14.8000 112.893 TY 120 921 4 110 130 120 110 1001 135 17 -14.7000 112.942 40 100 930 19 114 139 134 109 247 1010 -14.8000 112.893 TC 120 3 220
2003088S07131 2003 22 SI WA INIGO 2003-04-05 18:00:00 TS -14.8667 112.833 95 935 bom main 710 710 O_____O_____O_ jtwc_sh SH262003 -14.9000 112.800 TY 115 927 4 110 130 120 110 1001 135 25 -14.8000 112.900 40 95 935 5.00000 5.50000 19 110 139 130 99 247 1010 3 5 -14.9000 112.800 TC 115 135 135 2 215
2003088S07131 2003 22 SI WA INIGO 2003-04-05 21:00:00 TS -14.9592 112.773 main 721 721 P_____P_____P_ SH262003 -14.9925 112.735 TY 110 932 3 110 130 120 110 1001 135 25 -14.8925 112.850 40 92 940 19 104 129 120 94 231 1010 -14.9925 112.735 TC 110 2 207
2003088S07131 2003 22 SI WA INIGO 2003-04-06 00:00:00 TS -15.0667 112.733 90 945 bom main 735 735 O_____O_____O_ jtwc_sh SH262003 -15.1000 112.700 TY 105 938 3 110 130 120 110 1001 135 25 -15.0000 112.800 40 90 945 5.00000 5.50000 19 99 119 110 90 215 1011 3 5 -15.1000 112.700 TC 105 124 124 3 195
2003088S07131 2003 22 SI WA INIGO 2003-04-06 03:00:00 TS -15.2042 112.699 main 737 717 P_____P_____P_ SH262003 -15.2350 112.685 TY 102 941 3 105 125 120 105 1001 157 20 -15.1425 112.728 40 87 947 19 99 119 110 90 215 1010 -15.2350 112.685 TC 102 3 185
2003088S07131 2003 22 SI WA INIGO 2003-04-06 06:00:00 TS -15.3667 112.700 85 950 bom main 717 708 O_____O_____O_ jtwc_sh SH262003 -15.4000 112.700 TY 100 944 3 100 120 120 100 1001 180 15 -15.3000 112.700 40 85 950 4.50000 5.00000 19 99 119 110 90 215 1009 3 5 -15.4000 112.700 TC 100 119 119 3 173
2003088S07131 2003 22 SI WA INIGO 2003-04-06 09:00:00 TS -15.5325 112.747 main 708 683 P_____P_____P_ SH262003 -15.5775 112.735 TY 95 949 2 105 125 120 100 1001 160 15 -15.4425 112.770 40 82 952 19 99 119 110 90 207 1009 -15.5775 112.735 TC 95 4 160
2003088S07131 2003 22 SI WA INIGO 2003-04-06 12:00:00 TS -15.7333 112.833 80 955 bom main 683 649 O_____O_____O_ jtwc_sh SH262003 -15.8000 112.800 TY 90 954 2 110 130 120 100 1002 140 15 -15.6000 112.900 40 80 955 4.50000 5.00000 19 99 119 110 90 199 1010 3 5 -15.8000 112.800 TC 90 110 110 5 158
2003088S07131 2003 22 SI WA INIGO 2003-04-06 15:00:00 TS -15.9825 112.938 main 649 609 P_____P_____P_ SH262003 -16.0850 112.885 TY 85 958 2 110 130 120 100 1002 140 15 -15.7775 113.043 40 77 957 19 99 119 110 90 199 1010 -16.0850 112.885 TC 85 6 157
2003088S07131 2003 22 SI WA INIGO 2003-04-06 18:00:00 TS -16.2667 113.067 75 960 bom main 609 584 O_____O_____O_ jtwc_sh SH262003 -16.4000 113.000 TY 80 963 1 110 130 120 100 1002 140 15 -16.0000 113.200 40 75 960 4.00000 4.50000 19 99 119 110 90 199 1010 3 5 -16.4000 113.000 TC 80 104 104 6 157
2003088S07131 2003 22 SI WA INIGO 2003-04-06 21:00:00 TS -16.5541 113.194 main 575 545 P_____P_____P_ SH262003 -16.6999 113.120 TY 75 967 1 107 127 117 97 1002 140 20 -16.2625 113.343 40 72 965 19 99 119 104 84 199 1010 -16.6999 113.120 TC 75 7 154
2003088S07131 2003 22 SI WA INIGO 2003-04-07 00:00:00 TS -16.8667 113.367 70 970 bom main 535 495 O_____O_____O_ jtwc_sh SH262003 -17.0000 113.300 TY 70 972 1 105 125 115 95 1002 140 25 -16.6000 113.500 40 70 970 4.00000 4.50000 19 99 119 99 79 199 1011 3 5 -17.0000 113.300 TC 70 99 99 8 149
2003088S07131 2003 22 SI WA INIGO 2003-04-07 03:00:00 TS -17.2066 113.598 main 495 450 P_____P_____P_ SH262003 -17.2924 113.555 TY 67 974 1 105 125 107 82 1002 140 27 -17.0350 113.685 40 65 975 19 94 119 99 74 199 1010 -17.2924 113.555 TC 67 9 144
2003088S07131 2003 22 SI WA INIGO 2003-04-07 06:00:00 TS -17.5667 113.900 60 980 bom main 441 390 O_____O_____O_ jtwc_sh SH262003 -17.6000 113.900 TY 65 976 1 105 125 100 70 1002 140 30 -17.5000 113.900 30 60 980 3.50000 4.00000 19 90 119 99 70 199 1009 3 5 -17.6000 113.900 TC 65 84 84 10 137
2003088S07131 2003 22 SI WA INIGO 2003-04-07 09:00:00 TS -17.9310 114.296 main 390 330 P_____P_____P_ SH262003 -17.9428 114.372 TY 60 980 0 105 125 100 70 1003 140 30 -17.9075 114.143 30 55 984 19 80 119 89 50 175 1009 -17.9428 114.372 TC 60 10 135
2003088S07131 2003 22 SI WA INIGO 2003-04-07 12:00:00 TS -18.3000 114.667 50 988 bom main 330 291 O_____O_____O_ jtwc_sh SH262003 -18.3000 114.800 TS 55 984 0 105 125 100 70 1005 140 30 -18.3000 114.400 30 50 988 3.00000 3.50000 19 70 119 79 30 151 1010 3 5 -18.3000 114.800 TC 55 64 64 9 143
2003088S07131 2003 22 SI WA INIGO 2003-04-07 15:00:00 TS -18.6565 114.879 main 281 246 P_____P_____P_ SH262003 -18.6348 114.988 TS 55 984 0 97 125 95 72 1005 140 30 -18.7000 114.660 30 45 990 24 64 109 69 24 151 1010 -18.6348 114.988 TC 55 8 155
2003088S07131 2003 22 SI WA INIGO 2003-04-07 18:00:00 TS -19.0333 115.033 40 992 bom main 246 197 O_____O_____O_ jtwc_sh SH262003 -19.0000 115.100 TS 55 984 0 90 125 90 75 1005 140 30 -19.1000 114.900 30 40 992 2.50000 3.00000 30 59 99 59 19 151 1010 6 5 -19.0000 115.100 TC 55 49 49 9 158
2003088S07131 2003 22 SI WA INIGO 2003-04-07 21:00:00 TS -19.4516 115.214 35 992 bom main 188 139 P_____O_____P_ SH262003 -19.4274 115.270 TS 52 985 0 82 127 82 67 1005 140 27 -19.5000 115.100 30 35 992 2.50000 3.00000 30 50 99 59 19 151 1011 6 5 -19.4274 115.270 TC 52 49 49 10 157
2003088S07131 2003 22 SI WA INIGO 2003-04-08 00:00:00 TS -19.9333 115.433 35 995 bom main 139 76 O_____O_____O_ jtwc_sh SH262003 -19.9000 115.500 TS 50 987 0 75 130 75 60 1005 140 25 -20.0000 115.300 21 35 995 2.50000 3.00000 30 50 79 151 1011 6 5 -19.9000 115.500 TC 50 49 49 11 154
2003088S07131 2003 22 SI WA INIGO 2003-04-08 03:00:00 TS -20.4488 115.722 33 997 bom main 76 10 P_____O_____P_ SH262003 -20.3920 115.768 TS 45 990 0 75 130 75 60 1006 140 25 -20.6000 115.600 20 33 997 2.50000 3.00000 30 118 1011 6 7 -20.3920 115.768 TC 45 49 49 12 146
2003088S07131 2003 22 SI WA INIGO 2003-04-08 06:00:00 TS -20.9400 116.160 33 997 bom main 0 0 O_____O_____O_ jtwc_sh SH262003 -20.9000 116.200 TS 40 994 0 75 130 75 60 1007 140 25 -21.1000 116.000 20 33 997 2.00000 2.50000 30 103 1009 6 3 -20.9000 116.200 TC 40 45 45 15 130
2003088S07131 2003 22 SI WA INIGO 2003-04-08 09:00:00 TS -21.3788 116.913 25 1000 bom main 0 0 P_____O_____P_ SH262003 -21.3636 116.964 TS 32 998 -1 -21.5000 116.500 20 25 1000 1.50000 2.00000 58 1010 6 7 -21.3636 116.964 TC 32 34 34 17 124
2003088S07131 2003 22 SI WA INIGO 2003-04-08 12:00:00 TS -21.9000 117.700 main 0 0 O___________O_ jtwc_sh SH262003 -21.9000 117.700 TD 25 1002 -1 -21.9000 117.700 TC 25 16 139
2003088S07131 2003 22 SI WA INIGO 2003-04-08 15:00:00 TS -22.5992 118.070 main 0 0 P___________P_ SH262003 -22.5992 118.070 TD 25 1002 -1 -22.5992 118.070 TC 25 16 163
2003088S07131 2003 22 SI WA INIGO 2003-04-08 18:00:00 TS -23.4000 118.200 main 0 O___________O_ jtwc_sh SH262003 -23.4000 118.200 TD 25 1002 -1 -23.4000 118.200 TC 25 16 171

IBTrACS Databaseについて

本データベースは、米国NOAAが公開する1842年以降の世界の熱帯低気圧のベストトラックデータアーカイブInternational Best Track Archive for Climate Stewardship (IBTrACS)を、ウェブで閲覧しやすい形式に変換したものです。

最終更新日:2021-12-08